Time;durP1;ratioP1;P1;durP2;ratioP2;P2;SDS_P1;SDS_P2;PMS_P1;PMS_P2;Temp;Humidity;BMP_temperature;BMP_pressure;BME280_temperature;BME280_humidity;BME280_pressure;Samples;Min_cycle;Max_cycle;Signal;HPM_P1;HPM_P2
2021/03/29 00:01:43;;;;;;;13.07;2.88;;;8.30;99.90;;;;;;4862562;27;20519;-83
2021/03/29 00:04:07;;;;;;;10.77;3.00;;;8.30;99.90;;;;;;4880801;27;20117;-84
2021/03/29 00:06:31;;;;;;;9.40;2.65;;;8.30;99.90;;;;;;4869904;27;20515;-86
2021/03/29 00:08:55;;;;;;;10.85;3.42;;;8.30;99.90;;;;;;4863429;28;20086;-86
2021/03/29 00:11:21;;;;;;;13.48;3.40;;;8.30;99.90;;;;;;4879625;28;20089;-88
2021/03/29 00:13:47;;;;;;;15.32;3.05;;;8.30;99.90;;;;;;4846584;28;20094;-84
2021/03/29 00:16:15;;;;;;;14.02;3.05;;;8.30;99.90;;;;;;4850039;28;20091;-86
2021/03/29 00:18:50;;;;;;;12.77;3.40;;;8.30;99.90;;;;;;4868867;27;20153;-85
2021/03/29 00:21:16;;;;;;;8.68;2.55;;;8.20;99.90;;;;;;4869302;27;20421;-85
2021/03/29 00:23:41;;;;;;;17.55;3.20;;;8.20;99.90;;;;;;4853779;27;20510;-86
2021/03/29 00:26:05;;;;;;;10.55;2.63;;;8.20;99.90;;;;;;4866520;27;20103;-84
2021/03/29 00:28:28;;;;;;;17.00;4.03;;;8.20;99.90;;;;;;4868441;27;20100;-85
2021/03/29 00:30:51;;;;;;;5.82;2.95;;;8.30;99.90;;;;;;4869071;27;20107;-84
2021/03/29 00:33:23;;;;;;;11.38;2.78;;;8.30;99.90;;;;;;4868466;27;20181;-85
2021/03/29 00:35:55;;;;;;;18.15;4.18;;;8.30;99.90;;;;;;4862482;27;20087;-85
2021/03/29 00:38:21;;;;;;;11.27;3.35;;;8.30;99.90;;;;;;4860627;27;20121;-86
2021/03/29 00:40:52;;;;;;;11.00;3.00;;;8.40;99.90;;;;;;4910744;27;20092;-86
2021/03/29 00:43:26;;;;;;;7.55;3.20;;;8.40;99.90;;;;;;4868686;27;20094;-86
2021/03/29 00:45:50;;;;;;;9.50;3.55;;;8.40;99.90;;;;;;4861533;27;20078;-85
2021/03/29 00:48:15;;;;;;;10.60;3.53;;;8.50;99.90;;;;;;4860391;27;20088;-86
2021/03/29 00:50:57;;;;;;;10.63;3.22;;;8.50;99.90;;;;;;4868682;27;20141;-86
2021/03/29 00:53:27;;;;;;;11.40;3.20;;;8.50;99.90;;;;;;4863520;27;20168;-86
2021/03/29 00:55:51;;;;;;;14.65;3.55;;;8.50;99.90;;;;;;4868386;27;20091;-85
2021/03/29 00:58:15;;;;;;;13.35;3.38;;;8.50;99.90;;;;;;4860745;27;20097;-84
2021/03/29 01:00:58;;;;;;;17.67;4.00;;;8.50;99.90;;;;;;4869410;27;20086;-85
2021/03/29 01:03:23;;;;;;;14.02;3.72;;;8.50;99.90;;;;;;4849886;27;20077;-86
2021/03/29 01:05:59;;;;;;;8.75;3.58;;;8.40;99.90;;;;;;4868985;27;20773;-85
2021/03/29 01:08:23;;;;;;;15.32;3.78;;;8.40;99.90;;;;;;4860462;27;20520;-85
2021/03/29 01:10:51;;;;;;;13.55;3.75;;;8.40;99.90;;;;;;4868471;27;20081;-85
2021/03/29 01:13:18;;;;;;;10.98;3.80;;;8.50;99.90;;;;;;4868513;27;20089;-87
2021/03/29 01:15:43;;;;;;;13.95;3.65;;;8.50;99.90;;;;;;4867795;27;20086;-83
2021/03/29 01:18:10;;;;;;;6.55;2.83;;;8.50;99.90;;;;;;4863561;27;20086;-82
2021/03/29 01:20:49;;;;;;;13.85;3.53;;;8.60;99.90;;;;;;4868380;27;20089;-85
2021/03/29 01:23:15;;;;;;;18.27;3.75;;;8.60;99.90;;;;;;4864489;27;20130;-86
2021/03/29 01:25:54;;;;;;;16.73;4.05;;;8.60;99.90;;;;;;4871811;27;20134;-86
2021/03/29 01:28:21;;;;;;;16.23;3.83;;;8.60;99.90;;;;;;4859864;27;20096;-86
2021/03/29 01:30:45;;;;;;;11.00;3.60;;;8.70;99.90;;;;;;4870353;27;20116;-86
2021/03/29 01:33:11;;;;;;;13.02;3.53;;;8.60;99.90;;;;;;4871120;27;20163;-84
2021/03/29 01:35:36;;;;;;;10.60;3.25;;;8.70;99.90;;;;;;4867078;27;20088;-83
2021/03/29 01:38:00;;;;;;;17.05;3.90;;;8.70;99.90;;;;;;4871903;27;20093;-85
2021/03/29 01:40:25;;;;;;;16.42;4.07;;;8.70;99.90;;;;;;4853824;28;20089;-84
2021/03/29 01:42:49;;;;;;;9.02;3.05;;;8.60;99.90;;;;;;4868210;28;20097;-84
2021/03/29 01:45:18;;;;;;;11.57;3.72;;;8.70;99.90;;;;;;4853500;27;20101;-86
2021/03/29 01:47:43;;;;;;;10.20;3.13;;;;;;;;;;4855527;27;20089;-86
2021/03/29 01:50:08;;;;;;;15.60;3.03;;;8.70;99.90;;;;;;4870607;27;20081;-82
2021/03/29 01:52:38;;;;;;;18.42;3.83;;;8.70;99.90;;;;;;4872057;27;20089;-84
2021/03/29 01:55:11;;;;;;;6.13;3.00;;;8.60;99.90;;;;;;4870939;27;20117;-85
2021/03/29 01:57:34;;;;;;;10.98;3.60;;;8.70;99.90;;;;;;4859489;27;20100;-86
2021/03/29 01:59:57;;;;;;;13.30;3.60;;;8.70;99.90;;;;;;4874859;27;20081;-86
2021/03/29 02:02:22;;;;;;;8.68;2.78;;;8.70;99.90;;;;;;4863094;27;20740;-86
2021/03/29 02:04:46;;;;;;;16.10;4.35;;;8.60;99.90;;;;;;4868276;27;20093;-84
2021/03/29 02:07:11;;;;;;;8.63;3.85;;;8.60;99.90;;;;;;4866747;27;20089;-85
2021/03/29 02:09:36;;;;;;;9.27;3.33;;;8.60;99.90;;;;;;4867814;27;20123;-86
2021/03/29 02:12:00;;;;;;;16.43;3.60;;;8.60;99.90;;;;;;4868054;27;20089;-85
2021/03/29 02:14:30;;;;;;;10.80;2.70;;;8.50;99.90;;;;;;4868194;27;20514;-84
2021/03/29 02:17:00;;;;;;;14.98;3.35;;;8.50;99.90;;;;;;4869984;27;20095;-84
2021/03/29 02:19:24;;;;;;;7.72;2.85;;;8.50;99.90;;;;;;4869442;27;20082;-86
2021/03/29 02:21:55;;;;;;;13.40;3.97;;;8.50;99.90;;;;;;4870275;27;20114;-86
2021/03/29 02:24:33;;;;;;;18.25;3.42;;;8.50;99.90;;;;;;4870742;27;20099;-85
2021/03/29 02:26:57;;;;;;;12.55;3.30;;;8.50;99.90;;;;;;4870578;27;20081;-84
2021/03/29 02:29:21;;;;;;;12.48;3.38;;;8.40;99.90;;;;;;4863157;27;20131;-85
2021/03/29 02:31:55;;;;;;;8.85;3.03;;;8.40;99.90;;;;;;4870147;28;20173;-85
2021/03/29 02:34:24;;;;;;;11.25;3.95;;;8.40;99.90;;;;;;4862759;27;20105;-85
2021/03/29 02:36:48;;;;;;;10.27;3.13;;;8.40;99.90;;;;;;4865773;27;20092;-86
2021/03/29 02:39:11;;;;;;;16.23;3.83;;;8.40;99.90;;;;;;4868181;27;20575;-85
2021/03/29 02:41:47;;;;;;;10.90;3.40;;;8.40;99.90;;;;;;4867308;27;20086;-85
2021/03/29 02:44:23;;;;;;;15.35;3.40;;;8.30;99.90;;;;;;4869077;27;20140;-86
2021/03/29 02:46:50;;;;;;;8.15;3.55;;;8.30;99.90;;;;;;4862870;27;20084;-87
2021/03/29 02:49:13;;;;;;;20.83;3.90;;;;;;;;;;4875156;27;20081;-84
2021/03/29 02:51:49;;;;;;;15.82;3.72;;;8.20;99.90;;;;;;4855022;27;20106;-85
2021/03/29 02:54:13;;;;;;;;;;;8.20;99.90;;;;;;4866301;27;20090;-86
2021/03/29 02:56:41;;;;;;;12.30;3.55;;;8.20;99.90;;;;;;4868386;27;20724;-87
2021/03/29 02:59:08;;;;;;;17.98;3.33;;;8.20;99.90;;;;;;4869271;27;20131;-84
2021/03/29 03:01:34;;;;;;;28.15;3.75;;;8.20;99.90;;;;;;4870627;27;20093;-84
2021/03/29 03:04:04;;;;;;;9.63;3.58;;;8.20;99.90;;;;;;4886689;27;20084;-85
2021/03/29 03:06:34;;;;;;;12.50;4.13;;;8.30;99.90;;;;;;4870678;27;20525;-86
2021/03/29 03:09:06;;;;;;;11.07;4.03;;;8.30;99.90;;;;;;4868434;27;20081;-87
2021/03/29 03:11:32;;;;;;;8.23;3.35;;;8.30;99.90;;;;;;4867938;27;20088;-87
2021/03/29 03:13:57;;;;;;;19.95;3.88;;;8.30;99.90;;;;;;4864898;27;20146;-86
2021/03/29 03:16:19;;;;;;;15.75;3.45;;;8.30;99.90;;;;;;4873969;27;20435;-86
2021/03/29 03:18:48;;;;;;;14.68;3.70;;;8.30;99.90;;;;;;4882153;27;20096;-86
2021/03/29 03:21:18;;;;;;;10.38;3.53;;;7.80;99.90;;;;;;4868758;27;20236;-86
2021/03/29 03:23:58;;;;;;;16.52;3.97;;;8.40;99.90;;;;;;4870512;27;20089;-86
2021/03/29 03:26:28;;;;;;;14.38;4.55;;;8.30;99.90;;;;;;4868825;27;20100;-86
2021/03/29 03:29:00;;;;;;;11.48;3.72;;;8.40;99.90;;;;;;4869944;27;20086;-83
2021/03/29 03:31:25;;;;;;;10.90;3.15;;;8.40;99.90;;;;;;4851701;28;20520;-86
2021/03/29 03:33:52;;;;;;;12.55;3.45;;;8.40;99.90;;;;;;4854870;28;20472;-85
2021/03/29 03:36:18;;;;;;;20.55;3.10;;;8.40;99.90;;;;;;4847992;28;20085;-83
2021/03/29 03:38:47;;;;;;;7.20;3.45;;;8.40;99.90;;;;;;4849516;28;20512;-85
2021/03/29 03:41:13;;;;;;;13.40;4.13;;;8.40;99.90;;;;;;4867196;28;20081;-85
2021/03/29 03:43:43;;;;;;;12.27;3.75;;;8.40;99.90;;;;;;4871346;27;20089;-84
2021/03/29 03:46:11;;;;;;;11.38;3.50;;;8.50;99.90;;;;;;4866868;27;20086;-86
2021/03/29 03:48:46;;;;;;;7.93;3.17;;;8.50;99.90;;;;;;4869437;27;20477;-86
2021/03/29 03:51:09;;;;;;;8.82;3.47;;;8.50;99.90;;;;;;4869374;27;20090;-85
2021/03/29 03:53:33;;;;;;;12.70;3.85;;;8.50;99.90;;;;;;4868606;27;20087;-84
2021/03/29 03:56:04;;;;;;;10.27;3.08;;;8.50;99.90;;;;;;4870183;27;20102;-86
2021/03/29 03:58:29;;;;;;;16.77;3.88;;;8.60;99.90;;;;;;4875078;27;20138;-86
2021/03/29 04:00:53;;;;;;;16.55;3.72;;;8.60;99.90;;;;;;4866332;27;20089;-85
2021/03/29 04:03:25;;;;;;;16.67;3.55;;;8.50;99.90;;;;;;4870906;27;20540;-86
2021/03/29 04:06:06;;;;;;;15.60;3.92;;;8.50;99.90;;;;;;4869819;27;26215;-85
2021/03/29 04:08:30;;;;;;;16.30;3.63;;;8.50;99.90;;;;;;4865460;27;20089;-86
2021/03/29 04:10:54;;;;;;;13.30;3.70;;;8.50;99.90;;;;;;4867798;27;20088;-88
2021/03/29 04:13:25;;;;;;;11.50;3.65;;;8.50;99.90;;;;;;4871512;27;20089;-84
2021/03/29 04:15:55;;;;;;;13.15;3.55;;;8.50;99.90;;;;;;4871714;27;20144;-86
2021/03/29 04:18:22;;;;;;;9.38;3.35;;;8.50;99.90;;;;;;4868023;27;20077;-84
2021/03/29 04:20:45;;;;;;;10.93;3.38;;;8.50;99.90;;;;;;4865551;27;20100;-84
2021/03/29 04:23:08;;;;;;;9.20;3.38;;;8.40;99.90;;;;;;4868001;27;20092;-82
2021/03/29 04:25:30;;;;;;;11.52;3.67;;;8.30;99.90;;;;;;4851641;28;20615;-85
2021/03/29 04:28:04;;;;;;;10.43;3.50;;;8.30;99.90;;;;;;4866633;27;20141;-84
2021/03/29 04:30:27;;;;;;;17.20;4.38;;;8.30;99.90;;;;;;4866751;27;20150;-86
2021/03/29 04:32:54;;;;;;;7.45;3.47;;;8.20;99.90;;;;;;4869785;27;20093;-84
2021/03/29 04:35:21;;;;;;;12.68;3.83;;;8.20;99.90;;;;;;4868225;27;20090;-84
2021/03/29 04:37:52;;;;;;;18.05;4.63;;;8.20;99.90;;;;;;4868061;27;20089;-83
2021/03/29 04:40:17;;;;;;;10.25;3.38;;;8.20;99.90;;;;;;4868103;27;20447;-85
2021/03/29 04:42:41;;;;;;;11.38;4.10;;;8.10;99.90;;;;;;4861198;27;20090;-84
2021/03/29 04:45:07;;;;;;;14.45;3.85;;;8.10;99.90;;;;;;4849868;28;20540;-85
2021/03/29 04:47:31;;;;;;;13.38;4.18;;;8.10;99.90;;;;;;4849546;28;20098;-85
2021/03/29 04:49:56;;;;;;;11.15;3.97;;;8.10;99.90;;;;;;4850893;28;20087;-84
2021/03/29 04:52:19;;;;;;;15.05;5.13;;;8.10;99.90;;;;;;4869699;27;20429;-85
2021/03/29 04:54:42;;;;;;;14.52;4.50;;;8.10;99.90;;;;;;4883443;27;20139;-85
2021/03/29 04:57:05;;;;;;;18.38;4.18;;;;;;;;;;4848983;28;20121;-84
2021/03/29 04:59:32;;;;;;;16.92;3.80;;;8.00;99.90;;;;;;4879035;27;20096;-84
2021/03/29 05:01:55;;;;;;;10.73;4.05;;;;;;;;;;4866698;27;20093;-84
2021/03/29 05:04:17;;;;;;;18.13;4.43;;;8.00;99.90;;;;;;4851793;27;20529;-85
2021/03/29 05:06:46;;;;;;;14.32;4.03;;;8.00;99.90;;;;;;4849368;27;20090;-85
2021/03/29 05:09:20;;;;;;;16.02;4.55;;;8.00;99.90;;;;;;4865991;27;20090;-84
2021/03/29 05:11:49;;;;;;;10.48;4.72;;;8.00;99.90;;;;;;4871580;27;20078;-84
2021/03/29 05:14:22;;;;;;;15.50;3.97;;;8.00;99.90;;;;;;4875378;27;20085;-82
2021/03/29 05:16:59;;;;;;;12.00;4.07;;;;;;;;;;4875812;27;20091;-85
2021/03/29 05:19:38;;;;;;;15.82;4.38;;;8.00;99.90;;;;;;4872438;27;20082;-83
2021/03/29 05:22:03;;;;;;;10.95;4.25;;;8.00;99.90;;;;;;4859443;27;20085;-84
2021/03/29 05:24:33;;;;;;;20.83;4.40;;;8.00;99.90;;;;;;4875401;27;20521;-85
2021/03/29 05:27:08;;;;;;;21.55;4.72;;;8.00;99.90;;;;;;4871661;27;20086;-85
2021/03/29 05:29:40;;;;;;;16.53;4.17;;;8.00;99.90;;;;;;4860140;28;20126;-87
2021/03/29 05:32:13;;;;;;;12.50;4.95;;;8.00;99.90;;;;;;4867997;27;20083;-85
2021/03/29 05:34:50;;;;;;;16.00;4.80;;;8.00;99.90;;;;;;4872542;27;20118;-84
2021/03/29 05:37:14;;;;;;;19.35;6.22;;;8.00;99.90;;;;;;4870460;27;20098;-85
2021/03/29 05:39:53;;;;;;;14.70;4.80;;;8.10;99.90;;;;;;4872130;27;20426;-84
2021/03/29 05:42:15;;;;;;;17.63;5.13;;;8.10;99.90;;;;;;4870759;27;20097;-83
2021/03/29 05:44:40;;;;;;;10.88;4.60;;;8.10;99.90;;;;;;4863182;27;20085;-82
2021/03/29 05:47:23;;;;;;;12.38;4.30;;;8.10;99.90;;;;;;4871147;27;20090;-85
2021/03/29 05:49:49;;;;;;;24.88;5.38;;;8.20;99.90;;;;;;4869716;27;20081;-84
2021/03/29 05:52:13;;;;;;;16.35;5.10;;;8.30;99.90;;;;;;4871480;27;20157;-84
2021/03/29 05:54:38;;;;;;;15.57;4.63;;;8.30;99.90;;;;;;4880240;27;20094;-83
2021/03/29 05:57:11;;;;;;;12.95;4.72;;;8.20;99.90;;;;;;4872744;27;20086;-84
2021/03/29 05:59:40;;;;;;;13.60;4.35;;;8.30;99.90;;;;;;4870511;27;20093;-83
2021/03/29 06:02:06;;;;;;;14.02;4.82;;;8.30;99.90;;;;;;4864829;27;20577;-84
2021/03/29 06:05:02;;;;;;;15.35;4.63;;;8.40;99.90;;;;;;4871898;27;20089;-84
2021/03/29 06:07:27;;;;;;;9.50;4.72;;;8.30;99.90;;;;;;4863292;27;20528;-87
2021/03/29 06:10:09;;;;;;;19.40;5.23;;;8.40;99.90;;;;;;4871385;27;20146;-83
2021/03/29 06:12:43;;;;;;;18.33;5.10;;;8.40;99.90;;;;;;4870113;27;20492;-84
2021/03/29 06:15:08;;;;;;;13.63;4.57;;;8.50;99.90;;;;;;4858482;28;20094;-84
2021/03/29 06:17:30;;;;;;;12.45;4.25;;;8.50;99.90;;;;;;4864540;28;20082;-82
2021/03/29 06:19:57;;;;;;;11.05;3.88;;;8.60;99.90;;;;;;4878140;27;20085;-84
2021/03/29 06:22:29;;;;;;;11.73;4.25;;;8.60;99.90;;;;;;4866132;27;20476;-86
2021/03/29 06:25:16;;;;;;;12.70;3.85;;;8.70;99.90;;;;;;4871260;27;20089;-82
2021/03/29 06:27:51;;;;;;;8.98;3.92;;;8.80;99.90;;;;;;4869212;27;20089;-85
2021/03/29 06:30:24;;;;;;;13.23;4.60;;;8.70;99.90;;;;;;4870486;27;20572;-83
2021/03/29 06:32:55;;;;;;;17.92;4.20;;;8.80;99.90;;;;;;4869584;27;20492;-84
2021/03/29 06:35:21;;;;;;;13.68;4.03;;;8.80;99.90;;;;;;4871093;27;20082;-83
2021/03/29 06:37:46;;;;;;;12.02;3.95;;;8.90;99.90;;;;;;4868226;27;20114;-84
2021/03/29 06:40:12;;;;;;;12.18;4.28;;;8.90;99.90;;;;;;4878663;27;20489;-84
2021/03/29 06:42:37;;;;;;;14.23;4.32;;;9.00;99.90;;;;;;4867476;27;20428;-84
2021/03/29 06:45:10;;;;;;;13.83;4.00;;;8.90;99.90;;;;;;4869948;27;20500;-84
2021/03/29 06:47:39;;;;;;;12.98;4.45;;;9.00;99.90;;;;;;4868529;27;20097;-83
2021/03/29 06:50:05;;;;;;;15.82;3.63;;;9.10;99.90;;;;;;4870449;27;20772;-84
2021/03/29 06:52:31;;;;;;;11.52;4.00;;;9.10;99.90;;;;;;4861177;28;20090;-85
2021/03/29 06:55:14;;;;;;;14.70;3.92;;;9.20;99.90;;;;;;4858012;28;20082;-84
2021/03/29 06:58:01;;;;;;;13.57;4.30;;;9.30;99.90;;;;;;4858363;27;20081;-85
2021/03/29 07:00:33;;;;;;;16.10;3.95;;;9.40;99.90;;;;;;4859380;27;20081;-86
2021/03/29 07:03:00;;;;;;;13.90;3.83;;;9.40;99.90;;;;;;4867806;27;20523;-86
2021/03/29 07:05:26;;;;;;;11.38;3.63;;;9.40;99.90;;;;;;4864055;27;20176;-84
2021/03/29 07:07:50;;;;;;;15.15;4.10;;;9.40;99.90;;;;;;4871378;27;20494;-84
2021/03/29 07:10:15;;;;;;;18.98;3.80;;;9.50;99.90;;;;;;4872870;27;20463;-83
2021/03/29 07:12:40;;;;;;;10.70;3.88;;;9.60;99.90;;;;;;4867209;27;20089;-80
2021/03/29 07:15:12;;;;;;;;;;;9.60;99.90;;;;;;4854423;27;20981;-85
2021/03/29 07:17:39;;;;;;;9.38;3.28;;;9.60;99.90;;;;;;4849792;28;19969;-83
2021/03/29 07:20:04;;;;;;;12.07;3.42;;;9.60;99.90;;;;;;4869768;27;20108;-86
2021/03/29 07:22:30;;;;;;;15.77;3.50;;;9.50;99.90;;;;;;4868200;27;20081;-82
2021/03/29 07:25:00;;;;;;;15.45;3.92;;;9.50;99.90;;;;;;4853739;27;20104;-85
2021/03/29 07:27:46;;;;;;;16.45;3.70;;;9.50;99.90;;;;;;4853644;28;20614;-84
2021/03/29 07:30:15;;;;;;;18.17;3.50;;;9.50;99.90;;;;;;4849468;27;23508;-85
2021/03/29 07:32:41;;;;;;;14.75;3.53;;;9.60;99.90;;;;;;4873326;27;21072;-84
2021/03/29 07:35:11;;;;;;;9.15;3.05;;;9.50;99.90;;;;;;4870010;27;20085;-85
2021/03/29 07:37:43;;;;;;;12.57;3.60;;;9.60;99.90;;;;;;4871439;27;20081;-84
2021/03/29 07:40:38;;;;;;;10.05;3.20;;;9.60;99.90;;;;;;4892260;27;20588;-85
2021/03/29 07:43:07;;;;;;;20.25;3.25;;;9.60;99.90;;;;;;4859515;28;20097;-84
2021/03/29 07:45:52;;;;;;;11.38;3.40;;;9.60;99.90;;;;;;4869291;27;20081;-85
2021/03/29 07:48:37;;;;;;;13.70;3.60;;;9.60;99.90;;;;;;4878217;28;20088;-85
2021/03/29 07:51:16;;;;;;;12.02;3.30;;;9.70;99.90;;;;;;4875101;27;20111;-83
2021/03/29 07:53:51;;;;;;;15.57;3.80;;;9.70;99.90;;;;;;4863647;27;20089;-83
2021/03/29 07:56:42;;;;;;;14.60;3.58;;;9.80;99.90;;;;;;4850617;28;20093;-84
2021/03/29 07:59:06;;;;;;;13.95;3.17;;;9.80;99.90;;;;;;4861585;27;20167;-85
2021/03/29 08:02:20;;;;;;;17.20;4.25;;;10.00;99.90;;;;;;4869598;27;20555;-85
2021/03/29 08:05:07;;;;;;;14.20;3.50;;;10.00;99.90;;;;;;4858174;27;20149;-84
2021/03/29 08:07:49;;;;;;;16.40;3.10;;;10.20;99.90;;;;;;4824063;27;20088;-83
2021/03/29 08:10:15;;;;;;;10.32;3.15;;;10.30;99.90;;;;;;4830142;27;20528;-86
2021/03/29 08:12:56;;;;;;;13.25;3.70;;;10.40;99.90;;;;;;4847535;27;20089;-85
2021/03/29 08:15:19;;;;;;;13.90;3.42;;;10.50;99.90;;;;;;4840560;27;20528;-87
2021/03/29 08:17:52;;;;;;;8.60;3.08;;;10.70;99.90;;;;;;4852769;27;20531;-84
2021/03/29 08:20:36;;;;;;;18.42;3.70;;;10.80;99.90;;;;;;4848064;27;20087;-86
2021/03/29 08:23:36;;;;;;;12.77;2.70;;;10.90;99.90;;;;;;4821782;27;20486;-86
2021/03/29 08:26:16;;;;;;;7.70;2.42;;;11.10;99.90;;;;;;4821685;28;20089;-83
2021/03/29 08:29:19;;;;;;;13.10;2.65;;;11.10;99.90;;;;;;4829540;27;20164;-86
2021/03/29 08:32:07;;;;;;;10.48;2.63;;;11.20;99.90;;;;;;4826959;27;20759;-84
2021/03/29 08:34:45;;;;;;;10.20;2.72;;;11.20;99.90;;;;;;4837303;27;20127;-84
2021/03/29 08:37:39;;;;;;;9.82;2.95;;;11.20;99.90;;;;;;4823796;27;20100;-86
2021/03/29 08:40:10;;;;;;;13.90;3.00;;;11.30;99.90;;;;;;4840570;28;20113;-83
2021/03/29 08:42:35;;;;;;;11.02;3.50;;;11.50;99.90;;;;;;4829621;27;20105;-85
2021/03/29 08:45:01;;;;;;;11.43;3.00;;;11.60;99.90;;;;;;4826973;28;20167;-86
2021/03/29 08:47:29;;;;;;;6.20;2.80;;;11.70;99.90;;;;;;4811147;27;20086;-83
2021/03/29 08:49:56;;;;;;;16.75;3.00;;;11.80;99.90;;;;;;4824402;28;20140;-87
2021/03/29 08:52:24;;;;;;;10.55;3.75;;;11.80;99.90;;;;;;4820879;28;20184;-85
2021/03/29 08:54:57;;;;;;;10.73;3.20;;;11.90;99.90;;;;;;4833641;27;20138;-86
2021/03/29 08:57:25;;;;;;;12.23;3.33;;;12.10;99.90;;;;;;4844832;27;20082;-84
2021/03/29 09:00:02;;;;;;;9.55;2.70;;;12.60;99.90;;;;;;4837729;27;20160;-85
2021/03/29 09:02:27;;;;;;;10.18;2.60;;;12.80;99.90;;;;;;4833595;28;20074;-85
2021/03/29 09:04:58;;;;;;;11.30;2.70;;;12.80;99.90;;;;;;4830295;27;20096;-85
2021/03/29 09:07:35;;;;;;;14.18;2.47;;;12.70;99.90;;;;;;4834970;27;20086;-85
2021/03/29 09:10:01;;;;;;;9.45;2.58;;;12.80;99.90;;;;;;4824911;27;20081;-89
2021/03/29 09:12:36;;;;;;;9.90;2.95;;;12.70;99.90;;;;;;4831716;28;20085;-87
2021/03/29 09:15:01;;;;;;;6.75;2.47;;;12.50;99.90;;;;;;4842120;27;20085;-86
2021/03/29 09:21:00;;;;;;;13.68;3.20;;;12.40;99.90;;;;;;4830706;27;20077;-87
2021/03/29 09:23:40;;;;;;;9.82;2.88;;;12.30;99.90;;;;;;4782241;28;20182;-88
2021/03/29 09:26:05;;;;;;;13.43;2.55;;;12.40;99.90;;;;;;4858878;27;20084;-86
2021/03/29 09:28:36;;;;;;;8.23;2.83;;;12.30;99.90;;;;;;4800232;27;20208;-89
2021/03/29 09:31:15;;;;;;;14.02;3.20;;;12.30;99.90;;;;;;4826657;27;20087;-88
2021/03/29 09:33:57;;;;;;;10.60;2.47;;;12.30;99.90;;;;;;4819699;27;20093;-86
2021/03/29 09:36:23;;;;;;;17.98;3.35;;;12.40;99.90;;;;;;4819138;27;20083;-86
2021/03/29 09:39:18;;;;;;;12.40;2.53;;;12.40;99.90;;;;;;4826344;28;20082;-86
2021/03/29 09:41:56;;;;;;;10.68;2.70;;;12.40;99.90;;;;;;4806810;27;20443;-85
2021/03/29 09:44:26;;;;;;;17.35;3.42;;;12.40;99.90;;;;;;4828112;27;20120;-87
2021/03/29 09:46:58;;;;;;;13.35;2.80;;;12.50;99.90;;;;;;4839349;27;20177;-89
2021/03/29 09:49:23;;;;;;;8.32;2.55;;;12.60;99.90;;;;;;4840628;27;20609;-88
2021/03/29 09:52:13;;;;;;;;;;;12.60;99.90;;;;;;4837814;27;20164;-89
2021/03/29 09:54:47;;;;;;;12.60;2.97;;;12.50;99.90;;;;;;4815010;27;19965;-88
2021/03/29 09:57:24;;;;;;;12.77;2.65;;;12.40;99.90;;;;;;4814772;27;20780;-88
2021/03/29 10:00:04;;;;;;;14.00;3.03;;;12.30;99.90;;;;;;4841789;28;20101;-87
2021/03/29 10:02:31;;;;;;;9.60;3.22;;;12.30;99.90;;;;;;4831006;27;20085;-89
2021/03/29 10:05:01;;;;;;;10.43;3.00;;;12.30;99.90;;;;;;4840693;27;20089;-86
2021/03/29 10:07:41;;;;;;;12.15;2.95;;;12.50;99.90;;;;;;4826939;27;20548;-86
2021/03/29 10:13:30;;;;;;;;;;;12.70;99.90;;;;;;4821825;27;20576;-89
2021/03/29 10:15:55;;;;;;;10.57;2.95;;;12.90;99.90;;;;;;4834935;28;19986;-85
2021/03/29 10:18:32;;;;;;;12.95;3.33;;;13.00;99.90;;;;;;4822113;27;20118;-86
2021/03/29 10:21:04;;;;;;;12.57;3.88;;;13.20;99.90;;;;;;4816354;27;20081;-87
2021/03/29 10:23:32;;;;;;;18.85;3.17;;;13.10;99.90;;;;;;4833960;27;20113;-87
2021/03/29 10:27:05;;;;;;;23.23;3.95;;;12.90;99.90;;;;;;4818164;27;20088;-87
2021/03/29 10:36:31;;;;;;;10.35;3.45;;;12.60;99.90;;;;;;4823444;27;20081;-86
2021/03/29 10:39:05;;;;;;;9.23;3.33;;;12.70;99.90;;;;;;4831998;28;20086;-87
2021/03/29 10:41:59;;;;;;;11.05;3.70;;;12.70;99.90;;;;;;4801370;27;20086;-86
2021/03/29 10:44:51;;;;;;;15.20;3.72;;;12.60;99.90;;;;;;4822217;27;20450;-86
2021/03/29 10:47:19;;;;;;;15.27;3.45;;;12.70;99.90;;;;;;4850751;28;20086;-88
2021/03/29 10:49:44;;;;;;;17.35;3.75;;;12.80;99.90;;;;;;4842515;27;20452;-85
2021/03/29 10:52:26;;;;;;;13.63;3.83;;;12.80;99.90;;;;;;4852138;27;20086;-88
2021/03/29 10:54:52;;;;;;;10.00;3.40;;;13.00;99.90;;;;;;4845297;27;20088;-86
2021/03/29 10:57:32;;;;;;;12.82;4.07;;;13.10;99.90;;;;;;4841725;27;20154;-88
2021/03/29 10:59:56;;;;;;;14.48;4.38;;;13.20;99.90;;;;;;4830190;27;20466;-85
2021/03/29 11:02:33;;;;;;;14.05;3.42;;;13.20;99.90;;;;;;4835865;27;20085;-88
2021/03/29 11:05:43;;;;;;;11.13;3.35;;;13.30;99.90;;;;;;4801637;27;20079;-84
2021/03/29 11:08:08;;;;;;;13.40;3.50;;;13.50;99.90;;;;;;4842353;27;20170;-87
2021/03/29 11:10:37;;;;;;;11.68;4.32;;;13.70;99.90;;;;;;4812903;27;20547;-85
2021/03/29 11:13:15;;;;;;;11.07;3.80;;;13.90;99.90;;;;;;4791253;28;20112;-86
2021/03/29 11:15:39;;;;;;;14.25;4.07;;;13.90;99.90;;;;;;4816690;28;20180;-85
2021/03/29 11:18:16;;;;;;;10.15;3.38;;;13.70;99.90;;;;;;4814695;27;20042;-86
2021/03/29 11:24:28;;;;;;;8.95;3.45;;;13.50;99.90;;;;;;4808046;27;20077;-87
2021/03/29 11:26:57;;;;;;;13.80;3.95;;;13.40;99.90;;;;;;4837310;27;20162;-85
2021/03/29 11:29:26;;;;;;;11.30;3.88;;;13.40;99.90;;;;;;4822028;28;20089;-88
2021/03/29 11:32:14;;;;;;;9.68;4.20;;;13.60;99.90;;;;;;4825771;28;20077;-88
2021/03/29 11:34:57;;;;;;;12.68;3.58;;;13.80;99.90;;;;;;4841559;27;20077;-85
2021/03/29 11:37:21;;;;;;;15.68;4.45;;;13.80;99.90;;;;;;4834214;27;20088;-87
2021/03/29 11:39:53;;;;;;;13.27;4.03;;;13.60;99.90;;;;;;4843384;28;20076;-86
2021/03/29 11:42:19;;;;;;;16.08;4.18;;;13.60;99.90;;;;;;4827484;27;20077;-87
2021/03/29 11:44:42;;;;;;;;;;;13.70;99.90;;;;;;4856954;27;20084;-88
2021/03/29 11:47:07;;;;;;;15.18;3.75;;;13.80;99.90;;;;;;4870959;27;19969;-87
2021/03/29 11:49:32;;;;;;;10.60;4.27;;;13.80;99.90;;;;;;4867855;28;20075;-87
2021/03/29 11:52:00;;;;;;;15.73;4.57;;;13.80;99.90;;;;;;4877953;27;20079;-88
2021/03/29 11:54:23;;;;;;;18.23;4.00;;;13.90;99.90;;;;;;4866554;27;20046;-88
2021/03/29 11:56:47;;;;;;;15.00;4.05;;;13.90;99.90;;;;;;4866393;27;20094;-88
2021/03/29 11:59:11;;;;;;;20.35;4.35;;;13.90;99.90;;;;;;4840430;27;20082;-86
2021/03/29 12:01:41;;;;;;;16.55;3.97;;;13.90;99.90;;;;;;4883946;27;20080;-88
2021/03/29 12:04:07;;;;;;;14.20;4.22;;;13.90;99.90;;;;;;4874956;27;20076;-87
2021/03/29 12:06:37;;;;;;;11.00;3.70;;;13.90;99.90;;;;;;4871171;28;20145;-85
2021/03/29 12:09:09;;;;;;;14.57;3.53;;;14.70;99.90;;;;;;4872165;27;20407;-85
2021/03/29 12:11:58;;;;;;;13.02;3.47;;;14.10;99.90;;;;;;4877455;28;20076;-86
2021/03/29 12:14:23;;;;;;;12.05;3.60;;;;;;;;;;4847778;27;20049;-86
2021/03/29 12:16:56;;;;;;;10.20;3.47;;;14.50;99.90;;;;;;4872775;28;20044;-89
2021/03/29 12:19:19;;;;;;;9.73;3.65;;;14.60;99.90;;;;;;4865069;28;20049;-87
2021/03/29 12:21:54;;;;;;;11.70;3.60;;;14.70;99.90;;;;;;4870003;28;20053;-88
2021/03/29 12:24:23;;;;;;;13.30;3.80;;;14.90;99.90;;;;;;4865986;27;20060;-86
2021/03/29 12:26:47;;;;;;;9.73;3.78;;;15.10;99.90;;;;;;4877319;27;20056;-87
2021/03/29 12:29:14;;;;;;;8.60;3.92;;;15.10;99.90;;;;;;4878127;27;20466;-88
2021/03/29 12:31:41;;;;;;;11.82;3.78;;;15.10;99.90;;;;;;4854557;27;20098;-88
2021/03/29 12:34:12;;;;;;;13.27;3.97;;;14.80;99.90;;;;;;4864512;27;20045;-87
2021/03/29 12:36:40;;;;;;;10.32;3.47;;;14.70;99.90;;;;;;4876359;27;20118;-87
2021/03/29 12:39:08;;;;;;;13.38;4.28;;;14.70;99.90;;;;;;4864669;27;20053;-85
2021/03/29 12:41:37;;;;;;;12.65;4.07;;;14.80;99.90;;;;;;4869062;27;20052;-86
2021/03/29 12:44:14;;;;;;;9.52;3.92;;;14.90;99.90;;;;;;4873140;27;20033;-88
2021/03/29 12:46:38;;;;;;;15.00;3.90;;;15.30;99.90;;;;;;4870132;27;20045;-87
2021/03/29 12:49:08;;;;;;;14.05;4.45;;;15.40;99.90;;;;;;4860563;28;20129;-88
2021/03/29 12:51:35;;;;;;;18.30;4.13;;;15.40;99.90;;;;;;4865336;27;20110;-89
2021/03/29 12:54:06;;;;;;;14.60;3.58;;;15.30;99.90;;;;;;4862484;27;20057;-87
2021/03/29 12:56:30;;;;;;;16.00;4.13;;;15.20;99.90;;;;;;4865942;28;20037;-88
2021/03/29 12:59:04;;;;;;;11.90;3.60;;;15.30;99.90;;;;;;4872695;28;20373;-84
2021/03/29 13:01:29;;;;;;;9.75;3.45;;;15.50;99.90;;;;;;4863987;28;20050;-85
2021/03/29 13:03:55;;;;;;;14.75;3.80;;;15.50;99.90;;;;;;4867266;27;20042;-88
2021/03/29 13:06:22;;;;;;;13.02;4.05;;;;;;;;;;4873457;28;20049;-89
2021/03/29 13:08:48;;;;;;;11.90;4.07;;;15.80;99.90;;;;;;4848772;28;20058;-87
2021/03/29 13:11:22;;;;;;;15.35;4.30;;;15.80;99.90;;;;;;4867846;28;20473;-87
2021/03/29 13:13:45;;;;;;;12.18;3.97;;;15.60;99.90;;;;;;4855450;27;20132;-87
2021/03/29 13:16:23;;;;;;;11.48;3.83;;;15.70;99.90;;;;;;4871853;27;20070;-89
2021/03/29 13:18:48;;;;;;;10.90;3.95;;;15.90;99.90;;;;;;4860875;28;20053;-88
2021/03/29 13:21:11;;;;;;;9.13;3.28;;;15.90;99.90;;;;;;4866842;27;20050;-85
2021/03/29 13:23:36;;;;;;;17.98;4.30;;;;;;;;;;4873831;28;20060;-86